createdAt,value
2018-04-24T00:00:46.545Z,7.00
2018-04-24T00:03:14.001Z,7.43
2018-04-24T00:05:41.454Z,6.90
2018-04-24T00:08:08.911Z,7.07
2018-04-24T00:10:36.379Z,6.87
2018-04-24T00:13:03.839Z,7.27
2018-04-24T00:15:31.287Z,6.80
2018-04-24T00:17:58.743Z,7.23
2018-04-24T00:20:26.201Z,6.90
2018-04-24T00:22:53.663Z,8.07
2018-04-24T00:25:21.117Z,7.20
2018-04-24T00:27:48.578Z,6.53
2018-04-24T00:30:16.032Z,7.60
2018-04-24T00:32:43.488Z,7.83
2018-04-24T00:35:10.933Z,7.10
2018-04-24T00:37:38.395Z,7.90
2018-04-24T00:40:05.872Z,7.60
2018-04-24T00:42:33.320Z,7.27
2018-04-24T00:45:00.780Z,7.03
2018-04-24T00:47:28.228Z,7.87
2018-04-24T00:49:55.677Z,7.67
2018-04-24T00:52:23.136Z,7.33
2018-04-24T00:54:50.586Z,7.50
2018-04-24T00:57:18.041Z,8.17
2018-04-24T00:59:45.498Z,6.97
2018-04-24T01:02:13.001Z,7.53
2018-04-24T01:04:40.407Z,7.17
2018-04-24T01:07:07.851Z,7.10
2018-04-24T01:09:36.084Z,7.10
2018-04-24T01:12:03.536Z,6.60
2018-04-24T01:14:31.417Z,6.73
2018-04-24T01:16:58.891Z,6.73
2018-04-24T01:19:26.345Z,5.80
2018-04-24T01:21:53.804Z,6.30
2018-04-24T01:24:21.248Z,6.13
2018-04-24T01:26:48.710Z,4.10
2018-04-24T01:29:16.160Z,4.03
2018-04-24T01:31:43.611Z,3.40
2018-04-24T01:34:11.065Z,3.23
2018-04-24T01:36:38.527Z,2.57
2018-04-24T01:39:05.981Z,2.77
2018-04-24T01:41:35.248Z,2.57
2018-04-24T01:44:02.709Z,2.70
2018-04-24T01:46:30.179Z,2.80
2018-04-24T01:48:57.622Z,2.20
2018-04-24T01:51:25.065Z,2.93
2018-04-24T01:53:52.515Z,3.17
2018-04-24T01:56:19.963Z,3.00
2018-04-24T01:58:48.180Z,3.10
2018-04-24T02:01:15.630Z,2.77
2018-04-24T02:03:43.115Z,2.60
2018-04-24T02:06:10.595Z,3.40
2018-04-24T02:08:38.006Z,3.30
2018-04-24T02:11:05.451Z,2.43
2018-04-24T02:13:32.898Z,3.00
2018-04-24T02:16:00.352Z,3.80
2018-04-24T02:18:27.804Z,3.43
2018-04-24T02:20:55.247Z,2.93
2018-04-24T02:23:22.696Z,2.60
2018-04-24T02:25:50.917Z,2.77
2018-04-24T02:28:18.367Z,2.73
2018-04-24T02:30:45.823Z,2.53
2018-04-24T02:33:13.270Z,2.40
2018-04-24T02:35:40.727Z,2.90
2018-04-24T02:38:08.179Z,3.00
2018-04-24T02:40:35.630Z,3.63
2018-04-24T02:43:03.080Z,3.03
2018-04-24T02:45:30.550Z,3.07
2018-04-24T02:47:57.991Z,2.90
2018-04-24T02:50:25.445Z,3.20
2018-04-24T02:52:52.900Z,2.60
2018-04-24T02:55:20.362Z,2.90
2018-04-24T02:57:47.845Z,3.10
2018-04-24T03:00:15.295Z,3.10
2018-04-24T03:02:42.749Z,3.47
2018-04-24T03:05:10.205Z,3.70
2018-04-24T03:07:37.664Z,3.80
2018-04-24T03:10:05.122Z,4.13
2018-04-24T03:12:32.575Z,3.90
2018-04-24T03:15:00.019Z,4.10
2018-04-24T03:17:27.469Z,4.60
2018-04-24T03:19:54.917Z,5.17
2018-04-24T03:22:23.132Z,4.23
2018-04-24T03:24:50.588Z,5.00
2018-04-24T03:27:18.450Z,5.27
2018-04-24T03:29:45.898Z,5.53
2018-04-24T03:32:13.352Z,4.80
2018-04-24T03:34:40.797Z,4.53
2018-04-24T03:37:08.249Z,4.40
2018-04-24T03:39:35.691Z,5.13
2018-04-24T03:42:03.913Z,4.90
2018-04-24T03:44:31.362Z,5.53
2018-04-24T03:46:58.816Z,5.50
2018-04-24T03:49:26.268Z,4.83
2018-04-24T03:51:53.720Z,4.87
2018-04-24T03:54:21.168Z,6.17
2018-04-24T03:56:48.611Z,5.40
2018-04-24T03:59:16.060Z,5.80
2018-04-24T04:01:44.272Z,5.63
2018-04-24T04:04:11.726Z,8.90
2018-04-24T04:06:39.182Z,7.30
2018-04-24T04:09:06.632Z,7.87
2018-04-24T04:11:34.097Z,7.00
2018-04-24T04:14:01.553Z,7.50
2018-04-24T04:16:29.000Z,7.57
2018-04-24T04:19:08.315Z,7.90
2018-04-24T04:21:48.619Z,8.17
2018-04-24T04:27:20.536Z,8.33
2018-04-24T04:29:47.986Z,8.50
2018-04-24T04:32:15.450Z,8.20
2018-04-24T04:34:42.900Z,7.90
2018-04-24T04:37:10.365Z,7.50
2018-04-24T04:39:37.806Z,8.50
2018-04-24T04:42:05.260Z,7.97
2018-04-24T04:44:32.712Z,7.90
2018-04-24T04:47:00.175Z,6.80
2018-04-24T04:49:27.639Z,8.83
2018-04-24T04:51:55.087Z,8.27
2018-04-24T04:54:22.549Z,9.03
2018-04-24T04:56:50.008Z,9.20
2018-04-24T04:59:17.457Z,8.30
2018-04-24T05:01:44.919Z,7.50
2018-04-24T05:04:12.381Z,7.53
2018-04-24T05:06:39.835Z,7.87
2018-04-24T05:09:07.290Z,8.80
2018-04-24T05:11:34.740Z,9.33
2018-04-24T05:14:02.192Z,7.97
2018-04-24T05:16:29.641Z,9.13
2018-04-24T05:18:57.099Z,7.10
2018-04-24T05:21:24.549Z,7.77
2018-04-24T05:23:51.988Z,7.17
2018-04-24T05:26:19.439Z,6.60
2018-04-24T05:28:46.905Z,6.40
2018-04-24T05:31:14.366Z,6.40
2018-04-24T05:33:41.819Z,6.27
2018-04-24T05:36:09.271Z,6.33
2018-04-24T05:38:36.726Z,5.40
2018-04-24T05:41:04.164Z,5.77
2018-04-24T05:43:32.201Z,5.97
2018-04-24T05:45:59.648Z,6.00
2018-04-24T05:48:27.104Z,5.33
2018-04-24T05:50:54.554Z,4.70
2018-04-24T05:53:22.001Z,3.67
2018-04-24T05:55:49.449Z,3.87
2018-04-24T05:58:16.912Z,4.40
2018-04-24T06:00:44.360Z,4.67
2018-04-24T06:03:11.845Z,3.60
2018-04-24T06:05:39.291Z,3.70
2018-04-24T06:08:06.743Z,3.50
2018-04-24T06:10:34.198Z,3.80
2018-04-24T06:13:01.643Z,3.10
2018-04-24T06:15:29.087Z,3.30
2018-04-24T06:17:56.551Z,3.33
2018-04-24T06:20:23.992Z,3.70
2018-04-24T06:22:51.431Z,3.80
2018-04-24T06:25:18.884Z,2.87
2018-04-24T06:27:47.099Z,3.60
2018-04-24T06:30:14.557Z,3.37
2018-04-24T06:32:42.012Z,3.97
2018-04-24T06:35:09.461Z,2.93
2018-04-24T06:37:36.920Z,3.60
2018-04-24T06:40:04.380Z,3.83
2018-04-24T06:42:31.831Z,3.80
2018-04-24T06:44:59.300Z,4.40
2018-04-24T06:47:26.753Z,3.00
2018-04-24T06:49:54.204Z,3.20
2018-04-24T06:52:21.656Z,3.13
2018-04-24T06:54:49.120Z,2.80
2018-04-24T06:57:16.567Z,4.03
2018-04-24T06:59:44.022Z,3.43
2018-04-24T07:02:11.476Z,3.07
2018-04-24T07:04:38.922Z,3.10
2018-04-24T07:07:06.389Z,2.97
2018-04-24T07:09:33.845Z,3.03
2018-04-24T07:12:01.301Z,3.10
2018-04-24T07:14:28.760Z,3.23
2018-04-24T07:16:56.255Z,3.17
2018-04-24T07:19:23.676Z,3.03
2018-04-24T07:21:51.129Z,3.40
2018-04-24T07:24:18.601Z,3.13
2018-04-24T07:26:46.044Z,3.20
2018-04-24T07:29:13.500Z,2.90
2018-04-24T07:31:40.960Z,3.20
2018-04-24T07:34:08.412Z,4.00
2018-04-24T07:36:35.877Z,3.27
2018-04-24T07:39:03.324Z,3.00
2018-04-24T07:41:30.795Z,3.30
2018-04-24T07:43:58.242Z,3.60
2018-04-24T07:46:25.713Z,3.23
2018-04-24T07:48:53.665Z,3.30
2018-04-24T07:51:21.128Z,3.27
2018-04-24T07:53:48.579Z,3.30
2018-04-24T07:56:16.027Z,3.83
2018-04-24T07:58:43.496Z,3.70
2018-04-24T08:01:10.951Z,3.07
2018-04-24T08:03:38.398Z,3.20
2018-04-24T08:06:05.863Z,5.13
2018-04-24T08:08:33.320Z,3.80
2018-04-24T08:11:00.791Z,4.20
2018-04-24T08:13:28.245Z,3.80
2018-04-24T08:15:55.703Z,4.13
2018-04-24T08:18:23.156Z,3.30
2018-04-24T08:20:50.611Z,4.50
2018-04-24T08:23:18.072Z,3.90
2018-04-24T08:25:45.527Z,3.90
2018-04-24T08:28:12.986Z,3.60
2018-04-24T08:30:40.433Z,3.90
2018-04-24T08:33:07.898Z,3.90
2018-04-24T08:35:35.342Z,4.37
2018-04-24T08:38:02.801Z,3.97
2018-04-24T08:40:30.252Z,3.67
2018-04-24T08:42:57.714Z,3.20
2018-04-24T08:45:25.161Z,4.17
2018-04-24T08:47:52.704Z,3.80
2018-04-24T08:50:20.096Z,4.20
2018-04-24T08:52:47.544Z,3.40
2018-04-24T08:55:14.990Z,3.50
2018-04-24T08:57:42.444Z,3.60
2018-04-24T09:00:10.039Z,5.47
2018-04-24T09:02:37.495Z,3.30
2018-04-24T09:05:04.955Z,4.60
2018-04-24T09:07:32.423Z,3.70
2018-04-24T09:09:59.868Z,2.60
2018-04-24T09:12:27.319Z,3.53
2018-04-24T09:14:54.773Z,3.27
2018-04-24T09:17:22.235Z,3.63
2018-04-24T09:19:49.689Z,3.60
2018-04-24T09:22:17.161Z,3.30
2018-04-24T09:24:44.613Z,3.40
2018-04-24T09:27:12.849Z,3.20
2018-04-24T09:29:40.272Z,3.33
2018-04-24T09:32:08.536Z,3.73
2018-04-24T09:34:35.947Z,3.47
2018-04-24T09:37:03.392Z,3.30
2018-04-24T09:39:30.851Z,3.70
2018-04-24T09:41:58.310Z,3.50
2018-04-24T09:44:25.767Z,3.47
2018-04-24T09:46:53.207Z,3.00
2018-04-24T09:49:20.663Z,3.50
2018-04-24T09:51:48.117Z,3.23
2018-04-24T09:54:15.564Z,2.87
2018-04-24T09:56:43.805Z,3.03
2018-04-24T09:59:11.255Z,3.07
2018-04-24T10:01:38.712Z,3.03
2018-04-24T10:04:06.163Z,3.07
2018-04-24T10:06:33.637Z,3.10
2018-04-24T10:09:01.075Z,3.10
2018-04-24T10:11:28.525Z,2.97
2018-04-24T10:13:55.969Z,3.03
2018-04-24T10:16:23.432Z,3.00
2018-04-24T10:18:50.867Z,3.43
2018-04-24T10:21:18.323Z,2.60
2018-04-24T10:23:45.777Z,3.47
2018-04-24T10:26:13.223Z,2.90
2018-04-24T10:28:40.688Z,3.20
2018-04-24T10:31:08.130Z,3.40
2018-04-24T10:33:35.593Z,2.83
2018-04-24T10:36:03.044Z,3.43
2018-04-24T10:38:31.270Z,3.00
2018-04-24T10:40:58.719Z,3.50
2018-04-24T10:43:26.180Z,4.03
2018-04-24T10:45:53.631Z,2.80
2018-04-24T10:48:21.083Z,2.67
2018-04-24T10:50:48.528Z,2.87
2018-04-24T10:53:15.975Z,3.30
2018-04-24T10:55:43.424Z,3.37
2018-04-24T10:58:10.880Z,3.40
2018-04-24T11:00:38.340Z,3.90
2018-04-24T11:03:05.780Z,3.30
2018-04-24T11:05:33.355Z,2.80
2018-04-24T11:08:00.799Z,3.50
2018-04-24T11:10:29.017Z,3.20
2018-04-24T11:12:56.466Z,2.90
2018-04-24T11:15:23.914Z,3.07
2018-04-24T11:17:51.676Z,3.93
2018-04-24T11:20:19.123Z,3.00
2018-04-24T11:22:46.575Z,3.70
2018-04-24T11:25:14.024Z,2.97
2018-04-24T11:27:41.475Z,3.57
2018-04-24T11:30:09.693Z,2.30
2018-04-24T11:32:37.137Z,2.70
2018-04-24T11:35:04.601Z,3.23
2018-04-24T11:37:32.056Z,2.93
2018-04-24T11:40:00.276Z,2.63
2018-04-24T11:42:27.731Z,2.70
2018-04-24T11:44:55.180Z,2.60
2018-04-24T11:47:22.628Z,2.27
2018-04-24T11:49:50.084Z,2.93
2018-04-24T11:52:17.560Z,3.17
2018-04-24T11:54:45.007Z,2.90
2018-04-24T11:57:12.538Z,2.30
2018-04-24T11:59:39.915Z,3.53
2018-04-24T12:02:07.381Z,2.90
2018-04-24T12:04:34.827Z,2.60
2018-04-24T12:07:02.296Z,2.20
2018-04-24T12:09:29.749Z,2.60
2018-04-24T12:11:57.200Z,2.60
2018-04-24T12:14:24.647Z,2.43
2018-04-24T12:16:52.100Z,3.20
2018-04-24T12:19:20.319Z,2.70
2018-04-24T12:21:47.768Z,2.60
2018-04-24T12:24:15.222Z,2.70
2018-04-24T12:26:43.433Z,2.67
2018-04-24T12:29:10.892Z,2.83
2018-04-24T12:31:38.343Z,3.37
2018-04-24T12:34:05.800Z,2.60
2018-04-24T12:36:33.280Z,2.20
2018-04-24T12:39:01.494Z,2.53
2018-04-24T12:41:29.733Z,2.57
2018-04-24T12:43:57.170Z,2.57
2018-04-24T12:46:24.636Z,2.50
2018-04-24T12:48:52.083Z,2.63
2018-04-24T12:51:19.530Z,2.80
2018-04-24T12:53:46.975Z,3.17
2018-04-24T12:56:14.994Z,2.47
2018-04-24T12:58:42.436Z,2.70
2018-04-24T13:01:09.893Z,2.50
2018-04-24T13:03:37.356Z,2.43
2018-04-24T13:06:04.804Z,2.83
2018-04-24T13:08:32.269Z,2.77
2018-04-24T13:10:59.729Z,2.33
2018-04-24T13:13:27.188Z,2.37
2018-04-24T13:15:54.636Z,2.90
2018-04-24T13:18:22.096Z,3.03
2018-04-24T13:20:49.540Z,3.33
2018-04-24T13:23:17.004Z,2.13
2018-04-24T13:25:44.465Z,2.40
2018-04-24T13:28:11.891Z,2.23
2018-04-24T13:30:39.407Z,2.53
2018-04-24T13:33:06.847Z,2.10
2018-04-24T13:35:34.291Z,3.83
2018-04-24T13:38:01.752Z,2.47
2018-04-24T13:40:29.208Z,2.30
2018-04-24T13:42:56.670Z,2.47
2018-04-24T13:45:24.119Z,2.53
2018-04-24T13:47:51.577Z,2.60
2018-04-24T13:50:19.028Z,3.20
2018-04-24T13:52:46.488Z,3.00
2018-04-24T13:55:13.927Z,2.00
2018-04-24T13:57:41.377Z,2.13
2018-04-24T14:00:08.824Z,2.20
2018-04-24T14:02:36.279Z,2.60
2018-04-24T14:05:03.723Z,2.10
2018-04-24T14:07:31.177Z,2.10
2018-04-24T14:09:59.404Z,2.33
2018-04-24T14:12:26.844Z,2.37
2018-04-24T14:14:54.300Z,2.30
2018-04-24T14:17:21.755Z,2.00
2018-04-24T14:19:49.205Z,2.10
2018-04-24T14:22:16.657Z,1.67
2018-04-24T14:24:44.113Z,2.50
2018-04-24T14:27:11.573Z,2.53
2018-04-24T14:29:39.027Z,2.33
2018-04-24T14:32:06.532Z,1.93
2018-04-24T14:34:34.403Z,2.47
2018-04-24T14:37:01.891Z,2.30
2018-04-24T14:39:29.309Z,2.00
2018-04-24T14:41:56.757Z,2.53
2018-04-24T14:44:24.217Z,2.70
2018-04-24T14:46:52.192Z,2.33
2018-04-24T14:49:19.675Z,2.10
2018-04-24T14:51:47.892Z,2.13
2018-04-24T14:54:15.372Z,2.37
2018-04-24T14:56:42.821Z,2.03
2018-04-24T14:59:10.274Z,2.47
2018-04-24T15:01:37.715Z,2.40
2018-04-24T15:04:05.162Z,2.30
2018-04-24T15:06:44.469Z,1.93
2018-04-24T15:09:12.691Z,2.07
2018-04-24T15:11:40.148Z,2.20
2018-04-24T15:14:07.594Z,2.30
2018-04-24T15:16:35.049Z,2.70
2018-04-24T15:19:02.504Z,2.40
2018-04-24T15:21:29.960Z,2.00
2018-04-24T15:23:57.408Z,1.80
2018-04-24T15:26:24.864Z,2.50
2018-04-24T15:28:52.320Z,3.30
2018-04-24T15:31:19.768Z,2.27
2018-04-24T15:33:47.211Z,2.80
2018-04-24T15:36:14.658Z,2.70
2018-04-24T15:38:42.896Z,2.40
2018-04-24T15:41:10.344Z,2.73
2018-04-24T15:43:37.800Z,2.00
2018-04-24T15:46:05.259Z,2.53
2018-04-24T15:48:32.708Z,2.27
2018-04-24T15:51:00.160Z,2.47
2018-04-24T15:53:27.607Z,2.60
2018-04-24T15:55:55.052Z,2.57
2018-04-24T15:58:22.516Z,2.37
2018-04-24T16:00:49.965Z,2.80
2018-04-24T16:03:17.413Z,2.20
2018-04-24T16:05:44.867Z,2.43
2018-04-24T16:08:12.319Z,2.40
2018-04-24T16:10:39.769Z,2.20
2018-04-24T16:13:07.991Z,2.50
2018-04-24T16:15:35.443Z,2.33
2018-04-24T16:18:02.892Z,2.27
2018-04-24T16:20:30.343Z,3.03
2018-04-24T16:22:57.808Z,2.63
2018-04-24T16:25:25.268Z,2.27
2018-04-24T16:27:52.715Z,2.20
2018-04-24T16:30:20.159Z,2.20
2018-04-24T16:32:47.620Z,3.20
2018-04-24T16:35:15.076Z,2.10
2018-04-24T16:37:42.524Z,2.37
2018-04-24T16:40:09.976Z,2.37
2018-04-24T16:42:37.440Z,2.80
2018-04-24T16:45:04.880Z,2.13
2018-04-24T16:47:33.431Z,2.47
2018-04-24T16:50:00.877Z,2.40
2018-04-24T16:52:28.328Z,3.20
2018-04-24T16:54:55.767Z,2.63
2018-04-24T16:57:23.214Z,2.40
2018-04-24T16:59:50.872Z,2.27
2018-04-24T17:02:18.383Z,2.30
2018-04-24T17:04:45.833Z,2.30
2018-04-24T17:07:13.293Z,2.70
2018-04-24T17:09:40.736Z,2.83
2018-04-24T17:12:08.183Z,2.13
2018-04-24T17:14:35.645Z,2.50
2018-04-24T17:17:03.100Z,2.50
2018-04-24T17:19:30.561Z,2.87
2018-04-24T17:21:58.017Z,2.50
2018-04-24T17:24:25.466Z,2.53
2018-04-24T17:26:52.909Z,2.57
2018-04-24T17:29:20.351Z,2.77
2018-04-24T17:31:47.810Z,3.10
2018-04-24T17:34:15.425Z,2.17
2018-04-24T17:36:42.867Z,2.93
2018-04-24T17:39:10.342Z,2.90
2018-04-24T17:41:38.556Z,2.20
2018-04-24T17:44:06.016Z,3.07
2018-04-24T17:46:33.463Z,2.23
2018-04-24T17:49:00.950Z,2.07
2018-04-24T17:51:28.394Z,2.60
2018-04-24T17:53:55.848Z,2.60
2018-04-24T17:56:23.317Z,2.20
2018-04-24T17:58:50.762Z,2.03
2018-04-24T18:01:18.216Z,2.07
2018-04-24T18:03:45.673Z,2.43
2018-04-24T18:06:13.128Z,2.73
2018-04-24T18:08:41.323Z,4.10
2018-04-24T18:11:08.794Z,3.50
2018-04-24T18:13:36.444Z,3.60
2018-04-24T18:16:03.897Z,2.93
2018-04-24T18:18:31.337Z,3.57
2018-04-24T18:20:58.782Z,2.80
2018-04-24T18:23:26.247Z,2.70
2018-04-24T18:25:53.693Z,3.20
2018-04-24T18:28:21.138Z,3.37
2018-04-24T18:30:48.589Z,2.10
2018-04-24T18:33:16.044Z,3.47
2018-04-24T18:35:44.263Z,2.73
2018-04-24T18:38:11.724Z,2.63
2018-04-24T18:40:39.175Z,2.87
2018-04-24T18:43:06.628Z,2.70
2018-04-24T18:45:34.093Z,3.13
2018-04-24T18:48:01.561Z,2.40
2018-04-24T18:50:28.994Z,2.80
2018-04-24T18:52:56.434Z,2.20
2018-04-24T18:55:23.887Z,3.73
2018-04-24T18:57:51.337Z,3.33
2018-04-24T19:00:18.789Z,2.77
2018-04-24T19:02:46.235Z,2.60
2018-04-24T19:05:14.452Z,3.07
2018-04-24T19:07:41.909Z,3.23
2018-04-24T19:10:09.358Z,6.30
2018-04-24T19:12:36.811Z,6.00
2018-04-24T19:15:04.265Z,5.57
2018-04-24T19:17:31.716Z,3.63
2018-04-24T19:19:59.163Z,4.00
2018-04-24T19:22:26.615Z,3.70
2018-04-24T19:27:59.652Z,3.43
2018-04-24T19:30:27.096Z,3.27
2018-04-24T19:32:54.540Z,3.77
2018-04-24T19:35:21.997Z,4.17
2018-04-24T19:37:49.452Z,3.93
2018-04-24T19:40:22.469Z,3.80
2018-04-24T19:42:49.925Z,4.40
2018-04-24T19:45:17.376Z,3.50
2018-04-24T19:47:44.831Z,3.80
2018-04-24T19:50:18.773Z,3.73
2018-04-24T19:52:46.226Z,3.40
2018-04-24T19:55:19.301Z,4.10
2018-04-24T19:57:46.756Z,4.00
2018-04-24T20:00:14.196Z,3.53
2018-04-24T20:02:41.655Z,3.83
2018-04-24T20:05:09.100Z,3.83
2018-04-24T20:07:36.560Z,3.93
2018-04-24T20:10:04.026Z,4.60
2018-04-24T20:12:31.480Z,3.87
2018-04-24T20:14:58.931Z,4.30
2018-04-24T20:17:26.384Z,3.73
2018-04-24T20:19:53.833Z,3.47
2018-04-24T20:22:21.285Z,4.27
2018-04-24T20:24:48.731Z,3.67
2018-04-24T20:27:16.186Z,4.50
2018-04-24T20:29:44.420Z,5.13
2018-04-24T20:32:11.873Z,4.30
2018-04-24T20:34:39.324Z,3.03
2018-04-24T20:37:06.771Z,3.10
2018-04-24T20:39:34.907Z,3.60
2018-04-24T20:42:02.425Z,4.47
2018-04-24T20:44:29.875Z,3.50
2018-04-24T20:46:57.327Z,3.83
2018-04-24T20:49:24.792Z,4.13
2018-04-24T20:51:52.239Z,3.60
2018-04-24T20:54:19.701Z,3.80
2018-04-24T20:56:47.163Z,3.07
2018-04-24T20:59:14.620Z,3.93
2018-04-24T21:01:42.075Z,3.20
2018-04-24T21:04:09.544Z,3.10
2018-04-24T21:06:37.000Z,4.10
2018-04-24T21:09:04.464Z,2.67
2018-04-24T21:11:31.916Z,3.20
2018-04-24T21:13:59.387Z,3.50
2018-04-24T21:16:27.609Z,3.20
2018-04-24T21:18:55.071Z,3.00
2018-04-24T21:21:22.528Z,3.83
2018-04-24T21:23:49.982Z,3.90
2018-04-24T21:26:18.196Z,3.57
2018-04-24T21:28:46.415Z,3.73
2018-04-24T21:31:13.854Z,3.70
2018-04-24T21:33:41.307Z,4.53
2018-04-24T21:36:08.742Z,3.67
2018-04-24T21:38:36.966Z,3.90
2018-04-24T21:41:04.412Z,3.70
2018-04-24T21:43:31.878Z,4.33
2018-04-24T21:45:59.323Z,4.10
2018-04-24T21:48:26.777Z,5.33
2018-04-24T21:50:54.223Z,7.17
2018-04-24T21:53:21.674Z,11.10
2018-04-24T21:55:49.895Z,10.47
2018-04-24T21:58:17.359Z,7.03
2018-04-24T22:00:44.809Z,7.30
2018-04-24T22:03:12.266Z,7.80
2018-04-24T22:05:39.728Z,8.13
2018-04-24T22:08:07.179Z,7.27
2018-04-24T22:10:34.657Z,7.23
2018-04-24T22:13:02.150Z,6.53
2018-04-24T22:15:29.807Z,6.67
2018-04-24T22:17:57.295Z,6.17
2018-04-24T22:20:24.755Z,6.30
2018-04-24T22:22:52.210Z,6.70
2018-04-24T22:25:19.680Z,6.07
2018-04-24T22:27:47.135Z,5.60
2018-04-24T22:30:14.596Z,5.73
2018-04-24T22:32:42.049Z,5.47
2018-04-24T22:35:09.540Z,6.33
2018-04-24T22:37:37.764Z,5.17
2018-04-24T22:40:05.238Z,4.63
2018-04-24T22:42:32.704Z,4.50
2018-04-24T22:45:00.147Z,4.20
2018-04-24T22:47:27.596Z,4.37
2018-04-24T22:49:55.054Z,4.30
2018-04-24T22:52:22.593Z,4.93
2018-04-24T22:54:49.965Z,4.00
2018-04-24T22:57:17.412Z,3.73
2018-04-24T22:59:44.868Z,4.20
2018-04-24T23:02:12.352Z,3.80
2018-04-24T23:04:39.810Z,5.20
2018-04-24T23:07:07.248Z,4.57
2018-04-24T23:09:34.716Z,4.53
2018-04-24T23:12:14.082Z,4.07
2018-04-24T23:14:53.368Z,4.00
2018-04-24T23:17:32.673Z,4.53
2018-04-24T23:20:12.807Z,4.50
2018-04-24T23:22:41.168Z,4.10
2018-04-24T23:25:09.115Z,4.10
2018-04-24T23:27:36.570Z,4.60
2018-04-24T23:30:04.020Z,4.83
2018-04-24T23:32:31.469Z,3.90
2018-04-24T23:34:58.925Z,3.90
2018-04-24T23:37:26.374Z,4.20
2018-04-24T23:39:53.818Z,4.23
2018-04-24T23:42:21.278Z,4.40
2018-04-24T23:44:48.726Z,3.50
2018-04-24T23:47:16.957Z,4.57
2018-04-24T23:49:44.406Z,3.93
2018-04-24T23:52:11.872Z,3.83
2018-04-24T23:54:39.316Z,4.40
2018-04-24T23:57:06.772Z,4.20
2018-04-24T23:59:34.215Z,4.50
